Terminal Aerodrome Forecast
Issued by NWS Charleston, WV

Current Version | Previous Version | Text Only | Print | Product List | Glossary Off
Versions: 1 2 3 4 5 6 7 8 9 10 11 12 13 14 15 16 17 18 19 20 21 22 23 24 25 26 27 28

000
FTUS41 KRLX 152100 AAE
TAFBKW
TAF AMD
KBKW 152158Z 1522/1618 33012KT 5SM -SN OVC015
      TEMPO 1522/1523 1SM -SN BKN007
     FM152300 32012KT P6SM OVC025
     FM160200 32010KT P6SM BKN040
     FM160300 33009KT P6SM SCT150
     FM160500 33008KT P6SM SCT250
     FM161500 02007KT P6SM SKC=

USA.gov is the U.S. government's official web portal to all federal, state and local government web resources and services.